KMRY/MRY METAR and TAF weather

Enter ICAO airport designator
Station Type Date Time Source
KMRY METAR 2022/05/25 00:54 UTC NOAA

KMRY 250054Z 28007KT 10SM CLR 26/05 A2981 RMK AO2 SLP105 T02560050


Station Type Date Time Source
KMRY Decoded METAR 2022/05/25 00:54 UTC NOAA

MONTEREY PENINSULA AIRPORT, CA, United States (KMRY) 36-35N 121-51W 66M
May 24, 2022 - 08:54 PM EDT / 2022.05.25 0054 UTC
Wind: from the W (280 degrees) at 8 MPH (7 KT):0
Visibility: 10 mile(s):0
Sky conditions: clear
Temperature: 78.1 F (25.6 C)
Dew Point: 41.0 F (5.0 C)
Relative Humidity: 26%
Pressure (altimeter): 29.81 in. Hg (1009 hPa)
ob: KMRY 250054Z 28007KT 10SM CLR 26/05 A2981 RMK AO2 SLP105 T02560050
cycle: 1

Station Type Date Time Source
KMRY TAF 2022/05/24 18:22 UTC NOAA

TAF KMRY 241720Z 2418/2518 VRB03KT P6SM SKC
FM242000 30009KT P6SM FEW200
FM250300 22006KT P6SM SKC
FM250900 VRB03KT P6SM SKC
FM251400 VRB02KT 6SM BR HZ SKC

Example: see airport list